Time;durP1;ratioP1;P1;durP2;ratioP2;P2;SDS_P1;SDS_P2;PMS_P1;PMS_P2;Temp;Humidity;BMP_temperature;BMP_pressure;BME280_temperature;BME280_humidity;BME280_pressure;Samples;Min_cycle;Max_cycle;Signal;HPM_P1;HPM_P2
2021/07/22 00:01:55;;;;;;;14.20;9.07;;;16.20;99.90;;;;;;5115906;27;20019;-85
2021/07/22 00:04:20;;;;;;;11.90;9.65;;;16.10;99.90;;;;;;5115784;27;20027;-86
2021/07/22 00:06:46;;;;;;;17.83;10.23;;;16.10;99.90;;;;;;5134194;27;20533;-85
2021/07/22 00:09:11;;;;;;;13.02;9.35;;;16.10;99.90;;;;;;5115658;27;20070;-84
2021/07/22 00:11:37;;;;;;;10.82;7.72;;;16.00;99.90;;;;;;5115605;27;20049;-84
2021/07/22 00:14:03;;;;;;;13.63;7.72;;;16.00;99.90;;;;;;5112035;28;20032;-85
2021/07/22 00:16:28;;;;;;;14.18;8.88;;;15.90;99.90;;;;;;5095205;28;20048;-85
2021/07/22 00:18:54;;;;;;;12.38;9.63;;;15.90;99.90;;;;;;5094956;28;20097;-85
2021/07/22 00:21:20;;;;;;;12.30;9.05;;;15.80;99.90;;;;;;5113309;28;20024;-85
2021/07/22 00:23:45;;;;;;;10.20;8.25;;;15.80;99.90;;;;;;5106402;27;20023;-84
2021/07/22 00:26:11;;;;;;;13.45;9.15;;;15.80;99.90;;;;;;5115115;28;20080;-85
2021/07/22 00:28:36;;;;;;;10.85;8.43;;;15.80;99.90;;;;;;5133852;27;20023;-85
2021/07/22 00:31:04;;;;;;;12.43;8.43;;;15.70;99.90;;;;;;5133776;27;20096;-85
2021/07/22 00:33:30;;;;;;;14.50;8.10;;;15.70;99.90;;;;;;5115240;28;20525;-85
2021/07/22 00:35:58;;;;;;;12.30;7.80;;;15.60;99.90;;;;;;5133709;28;20046;-84
2021/07/22 00:38:24;;;;;;;11.93;8.55;;;15.50;99.90;;;;;;5115226;28;20031;-84
2021/07/22 00:40:49;;;;;;;15.65;10.48;;;15.50;99.90;;;;;;5133650;28;20035;-83
2021/07/22 00:43:15;;;;;;;12.80;9.55;;;15.50;99.90;;;;;;5133702;28;20023;-83
2021/07/22 00:45:40;;;;;;;12.65;8.57;;;15.50;99.90;;;;;;5133208;28;20041;-83
2021/07/22 00:48:06;;;;;;;11.65;8.00;;;15.50;99.90;;;;;;5133328;28;20062;-83
2021/07/22 00:50:32;;;;;;;13.07;8.75;;;15.50;99.90;;;;;;5133659;28;20031;-83
2021/07/22 00:52:58;;;;;;;10.75;8.52;;;15.50;99.90;;;;;;5133524;28;20019;-83
2021/07/22 00:55:27;;;;;;;12.77;8.40;;;15.50;99.90;;;;;;5133526;28;20015;-85
2021/07/22 00:57:53;;;;;;;13.90;9.18;;;15.50;99.90;;;;;;5115225;28;20365;-85
2021/07/22 01:00:19;;;;;;;11.27;8.30;;;15.50;99.90;;;;;;5114786;28;20027;-85
2021/07/22 01:02:45;;;;;;;12.93;9.43;;;15.40;99.90;;;;;;5133286;28;20086;-84
2021/07/22 01:05:11;;;;;;;16.40;10.73;;;15.40;99.90;;;;;;5115135;28;20015;-84
2021/07/22 01:07:37;;;;;;;15.82;11.43;;;15.40;99.90;;;;;;5133398;28;20019;-85
2021/07/22 01:10:04;;;;;;;23.92;12.55;;;15.40;99.90;;;;;;5115156;28;20051;-84
2021/07/22 01:12:30;;;;;;;19.45;13.05;;;15.40;99.90;;;;;;5114774;28;20030;-84
2021/07/22 01:14:55;;;;;;;22.88;11.18;;;15.40;99.90;;;;;;5114666;28;20019;-83
2021/07/22 01:17:44;;;;;;;20.33;10.77;;;15.40;99.90;;;;;;5133241;28;20037;-84
2021/07/22 01:20:21;;;;;;;18.52;10.45;;;15.40;99.90;;;;;;5114887;28;20063;-83
2021/07/22 01:22:48;;;;;;;17.45;10.43;;;15.40;99.90;;;;;;5114801;28;20023;-83
2021/07/22 01:25:15;;;;;;;14.00;10.00;;;15.40;99.90;;;;;;5133383;28;20019;-83
2021/07/22 01:27:42;;;;;;;13.45;9.75;;;15.40;99.90;;;;;;5133143;28;20019;-85
2021/07/22 01:30:08;;;;;;;15.98;9.23;;;15.30;99.90;;;;;;5133044;28;20389;-86
2021/07/22 01:32:34;;;;;;;12.77;8.95;;;15.30;99.90;;;;;;5114544;28;20015;-85
2021/07/22 01:35:00;;;;;;;20.30;10.75;;;15.30;99.90;;;;;;5133064;28;20034;-85
2021/07/22 01:37:26;;;;;;;15.75;11.20;;;15.30;99.90;;;;;;5133039;27;20068;-85
2021/07/22 01:39:52;;;;;;;15.77;10.85;;;15.20;99.90;;;;;;5118168;27;20035;-84
2021/07/22 01:42:18;;;;;;;14.68;10.63;;;15.10;99.90;;;;;;5136791;27;20023;-84
2021/07/22 01:44:43;;;;;;;16.70;12.02;;;15.00;99.90;;;;;;5137147;27;20027;-84
2021/07/22 01:47:09;;;;;;;11.32;9.63;;;15.00;99.90;;;;;;5118394;27;20027;-85
2021/07/22 01:49:35;;;;;;;14.60;10.18;;;14.90;99.90;;;;;;5118310;27;20023;-85
2021/07/22 01:52:02;;;;;;;19.10;12.60;;;14.90;99.90;;;;;;5136723;27;20016;-84
2021/07/22 01:54:28;;;;;;;17.00;12.50;;;14.80;99.90;;;;;;5118228;27;20057;-84
2021/07/22 01:56:57;;;;;;;17.80;12.15;;;14.80;99.90;;;;;;5136688;27;20030;-84
2021/07/22 01:59:23;;;;;;;16.05;11.57;;;14.80;99.90;;;;;;5136493;27;20027;-85
2021/07/22 02:01:48;;;;;;;12.95;10.13;;;14.80;99.90;;;;;;5136654;27;20050;-85
2021/07/22 02:04:14;;;;;;;15.35;10.55;;;14.90;99.90;;;;;;5136094;27;20046;-84
2021/07/22 02:06:40;;;;;;;16.45;10.80;;;14.90;99.90;;;;;;5118107;27;20015;-84
2021/07/22 02:09:05;;;;;;;14.77;10.75;;;14.90;99.90;;;;;;5117969;27;20019;-84
2021/07/22 02:11:31;;;;;;;15.73;12.00;;;14.90;99.90;;;;;;5136373;27;20035;-85
2021/07/22 02:13:57;;;;;;;15.30;10.75;;;14.90;99.90;;;;;;5117953;27;20023;-84
2021/07/22 02:16:22;;;;;;;14.90;10.23;;;14.90;99.90;;;;;;5136166;27;20023;-84
2021/07/22 02:18:49;;;;;;;14.30;10.43;;;14.90;99.90;;;;;;5117305;27;20046;-83
2021/07/22 02:21:14;;;;;;;17.73;10.65;;;14.90;99.90;;;;;;5117666;27;20476;-84
2021/07/22 02:23:40;;;;;;;26.27;14.82;;;14.90;99.90;;;;;;5136113;27;20027;-85
2021/07/22 02:26:06;;;;;;;26.00;14.05;;;14.90;99.90;;;;;;5136082;27;20094;-84
2021/07/22 02:28:32;;;;;;;16.10;10.68;;;15.00;99.90;;;;;;5117614;27;20031;-84
2021/07/22 02:30:59;;;;;;;14.88;10.68;;;14.90;99.90;;;;;;5135989;27;20087;-84
2021/07/22 02:33:25;;;;;;;21.50;12.20;;;14.90;99.90;;;;;;5135641;27;20026;-85
2021/07/22 02:35:50;;;;;;;19.00;11.68;;;14.90;99.90;;;;;;5117363;27;20027;-84
2021/07/22 02:38:16;;;;;;;21.58;15.30;;;14.90;99.90;;;;;;5135800;27;20535;-85
2021/07/22 02:40:42;;;;;;;20.10;15.88;;;14.80;99.90;;;;;;5135693;27;20099;-84
2021/07/22 02:43:08;;;;;;;20.25;14.32;;;14.80;99.90;;;;;;5135777;27;20027;-85
2021/07/22 02:45:36;;;;;;;16.88;12.32;;;14.80;99.90;;;;;;5117260;27;20092;-84
2021/07/22 02:48:02;;;;;;;16.15;10.10;;;14.80;99.90;;;;;;5135984;27;20035;-85
2021/07/22 02:50:27;;;;;;;13.98;11.02;;;14.80;99.90;;;;;;5135129;27;20038;-85
2021/07/22 02:52:53;;;;;;;15.10;10.32;;;14.80;99.90;;;;;;5135435;27;20019;-85
2021/07/22 02:55:18;;;;;;;14.27;9.57;;;14.80;99.90;;;;;;5135584;27;20403;-85
2021/07/22 02:57:44;;;;;;;12.50;9.45;;;14.80;99.90;;;;;;5135367;27;20046;-85
2021/07/22 03:00:10;;;;;;;15.48;9.98;;;14.80;99.90;;;;;;5116907;27;20042;-85
2021/07/22 03:02:36;;;;;;;14.05;9.50;;;14.80;99.90;;;;;;5116794;27;20601;-83
2021/07/22 03:05:01;;;;;;;12.63;8.52;;;14.80;99.90;;;;;;5116352;27;20122;-83
2021/07/22 03:07:27;;;;;;;13.80;9.18;;;14.80;99.90;;;;;;5135082;27;20049;-82
2021/07/22 03:09:53;;;;;;;13.48;9.40;;;14.80;99.90;;;;;;5116744;27;20027;-84
2021/07/22 03:12:18;;;;;;;11.07;7.57;;;14.90;99.90;;;;;;5135027;27;20524;-85
2021/07/22 03:14:44;;;;;;;17.48;8.75;;;14.90;99.90;;;;;;5135078;27;20076;-85
2021/07/22 03:17:09;;;;;;;14.35;9.25;;;14.90;99.90;;;;;;5116632;27;20057;-85
2021/07/22 03:19:35;;;;;;;13.13;9.18;;;14.90;99.90;;;;;;5134750;27;20388;-84
2021/07/22 03:22:01;;;;;;;16.35;9.95;;;14.90;99.90;;;;;;5116386;27;20019;-84
2021/07/22 03:24:26;;;;;;;11.93;9.15;;;14.90;99.90;;;;;;5134838;27;20545;-84
2021/07/22 03:26:52;;;;;;;13.02;9.13;;;14.90;99.90;;;;;;5116363;27;20019;-86
2021/07/22 03:29:18;;;;;;;11.27;8.70;;;14.90;99.90;;;;;;5134853;27;20023;-86
2021/07/22 03:31:43;;;;;;;12.00;8.23;;;14.90;99.90;;;;;;5134622;27;20023;-83
2021/07/22 03:34:09;;;;;;;12.95;9.63;;;15.00;99.90;;;;;;5134303;27;20023;-83
2021/07/22 03:36:35;;;;;;;16.15;9.93;;;14.90;99.90;;;;;;5116081;27;20023;-85
2021/07/22 03:39:00;;;;;;;17.35;9.20;;;15.00;99.90;;;;;;5116197;27;20035;-85
2021/07/22 03:41:26;;;;;;;13.57;9.27;;;15.00;99.90;;;;;;5115948;27;20023;-83
2021/07/22 03:43:52;;;;;;;22.00;10.45;;;15.00;99.90;;;;;;5134588;27;20533;-84
2021/07/22 03:46:18;;;;;;;14.23;8.75;;;15.00;99.90;;;;;;5134402;27;20019;-84
2021/07/22 03:48:44;;;;;;;14.00;9.40;;;15.00;99.90;;;;;;5134522;27;20023;-84
2021/07/22 03:51:10;;;;;;;14.18;8.55;;;15.00;99.90;;;;;;5116093;27;20046;-85
2021/07/22 03:53:36;;;;;;;13.38;8.80;;;15.00;99.90;;;;;;5134560;27;20020;-85
2021/07/22 03:56:03;;;;;;;15.02;10.20;;;15.00;99.90;;;;;;5115986;27;20369;-83
2021/07/22 03:58:28;;;;;;;13.05;9.82;;;15.10;99.90;;;;;;5115742;27;20034;-85
2021/07/22 04:00:57;;;;;;;13.50;8.27;;;15.10;99.90;;;;;;5115388;27;20026;-84
2021/07/22 04:03:23;;;;;;;13.20;8.65;;;15.20;99.90;;;;;;5120601;27;20161;-85
2021/07/22 04:05:49;;;;;;;12.13;8.85;;;15.30;99.90;;;;;;5095417;28;20023;-85
2021/07/22 04:08:14;;;;;;;16.17;9.85;;;15.30;99.90;;;;;;5113430;28;20035;-84
2021/07/22 04:10:40;;;;;;;12.20;8.90;;;15.40;99.90;;;;;;5113603;28;20053;-84
2021/07/22 04:13:06;;;;;;;12.05;8.38;;;15.50;99.90;;;;;;5095385;28;20493;-84
2021/07/22 04:15:32;;;;;;;13.95;8.85;;;15.50;99.90;;;;;;5095269;28;20035;-84
2021/07/22 04:17:59;;;;;;;16.75;9.15;;;15.60;99.90;;;;;;5095288;28;20023;-84
2021/07/22 04:20:27;;;;;;;16.63;9.57;;;15.60;99.90;;;;;;5113327;28;20477;-84
2021/07/22 04:22:56;;;;;;;17.67;9.95;;;15.70;99.90;;;;;;5109679;28;20031;-85
2021/07/22 04:25:22;;;;;;;15.85;10.23;;;15.70;99.90;;;;;;5092991;28;20049;-83
2021/07/22 04:27:47;;;;;;;14.88;8.93;;;15.80;99.90;;;;;;5078653;28;20414;-84
2021/07/22 04:30:13;;;;;;;20.70;11.10;;;15.80;99.90;;;;;;5113318;28;20137;-85
2021/07/22 04:32:39;;;;;;;18.85;10.27;;;16.00;99.90;;;;;;5095024;28;20023;-85
2021/07/22 04:35:08;;;;;;;17.15;10.95;;;16.00;99.90;;;;;;5095108;28;20396;-85
2021/07/22 04:37:37;;;;;;;16.95;9.63;;;16.00;99.90;;;;;;5094766;28;20114;-84
2021/07/22 04:40:05;;;;;;;14.88;10.00;;;16.10;99.90;;;;;;5094949;28;20035;-85
2021/07/22 04:42:32;;;;;;;16.90;9.65;;;16.20;99.90;;;;;;5094795;28;20027;-85
2021/07/22 04:44:57;;;;;;;16.60;10.20;;;16.30;99.90;;;;;;5094950;28;20485;-84
2021/07/22 04:47:23;;;;;;;17.35;9.30;;;16.30;99.90;;;;;;5103345;28;20032;-84
2021/07/22 04:49:49;;;;;;;14.85;9.85;;;16.40;99.90;;;;;;5113565;28;20027;-84
2021/07/22 04:52:14;;;;;;;15.63;9.73;;;16.40;99.90;;;;;;5114418;28;20042;-84
2021/07/22 04:54:40;;;;;;;17.30;10.13;;;16.50;99.90;;;;;;5131696;28;20023;-84
2021/07/22 04:57:06;;;;;;;13.70;10.00;;;16.50;99.90;;;;;;5131645;28;20015;-84
2021/07/22 04:59:31;;;;;;;14.88;9.38;;;16.50;99.90;;;;;;5133161;28;20043;-84
2021/07/22 05:01:57;;;;;;;14.57;9.63;;;16.60;99.90;;;;;;5131945;28;20019;-84
2021/07/22 05:04:23;;;;;;;13.10;9.32;;;16.70;99.90;;;;;;5133454;28;20028;-85
2021/07/22 05:06:48;;;;;;;14.43;9.40;;;16.70;99.90;;;;;;5132070;28;20023;-85
2021/07/22 05:09:14;;;;;;;15.13;9.00;;;16.80;99.90;;;;;;5133481;28;20065;-84
2021/07/22 05:11:39;;;;;;;13.88;9.07;;;16.80;99.90;;;;;;5131729;27;20015;-84
2021/07/22 05:14:05;;;;;;;11.45;9.15;;;16.80;99.90;;;;;;5135610;27;20019;-85
2021/07/22 05:16:31;;;;;;;13.88;9.60;;;16.80;99.90;;;;;;5135463;27;20057;-85
2021/07/22 05:18:57;;;;;;;16.17;9.15;;;16.80;99.90;;;;;;5152150;27;20038;-83
2021/07/22 05:21:22;;;;;;;20.27;8.55;;;16.80;99.90;;;;;;5137076;27;20022;-84
2021/07/22 05:23:49;;;;;;;15.18;9.60;;;16.80;99.90;;;;;;5135733;27;20476;-85
2021/07/22 05:26:16;;;;;;;15.15;10.32;;;16.80;99.90;;;;;;5137186;27;20103;-84
2021/07/22 05:28:42;;;;;;;16.20;9.73;;;16.80;99.90;;;;;;5134519;27;20081;-85
2021/07/22 05:31:09;;;;;;;14.90;9.63;;;16.80;99.90;;;;;;5135102;27;20019;-85
2021/07/22 05:33:35;;;;;;;14.60;8.90;;;16.90;99.90;;;;;;5130743;27;20027;-85
2021/07/22 05:36:09;;;;;;;13.70;9.43;;;17.00;99.90;;;;;;5134642;27;20377;-86
2021/07/22 05:38:37;;;;;;;14.25;9.85;;;17.00;99.90;;;;;;5134917;27;20465;-85
2021/07/22 05:41:05;;;;;;;14.93;9.93;;;17.00;99.90;;;;;;5120460;27;20012;-84
2021/07/22 05:43:31;;;;;;;14.65;9.65;;;17.00;99.90;;;;;;5136247;27;20073;-84
2021/07/22 05:45:57;;;;;;;12.48;8.75;;;17.10;99.90;;;;;;5133830;27;20136;-84
2021/07/22 05:48:23;;;;;;;14.57;10.15;;;17.10;99.90;;;;;;5119113;27;20026;-84
2021/07/22 05:50:49;;;;;;;12.50;9.25;;;17.20;99.90;;;;;;5126708;27;20016;-84
2021/07/22 05:53:19;;;;;;;16.05;9.38;;;17.30;99.90;;;;;;5128875;27;20023;-84
2021/07/22 05:55:45;;;;;;;14.27;9.45;;;17.30;99.90;;;;;;5131774;27;20023;-85
2021/07/22 05:58:11;;;;;;;11.43;8.40;;;17.30;99.90;;;;;;5129092;27;20055;-85
2021/07/22 06:00:37;;;;;;;14.80;9.95;;;17.40;99.90;;;;;;5132237;27;20063;-84
2021/07/22 06:03:06;;;;;;;13.00;8.35;;;17.50;99.90;;;;;;5135971;27;20059;-84
2021/07/22 06:05:33;;;;;;;13.27;9.30;;;17.50;99.90;;;;;;5135898;27;20024;-83
2021/07/22 06:08:01;;;;;;;15.05;10.25;;;17.60;99.90;;;;;;5136457;27;20027;-83
2021/07/22 06:10:26;;;;;;;12.95;10.05;;;17.70;99.90;;;;;;5131968;27;20019;-83
2021/07/22 06:12:54;;;;;;;15.77;9.88;;;17.80;99.90;;;;;;5134585;27;20145;-83
2021/07/22 06:15:20;;;;;;;14.75;10.23;;;17.90;99.90;;;;;;5133291;27;20035;-83
2021/07/22 06:17:46;;;;;;;18.10;11.35;;;18.00;99.90;;;;;;5133470;27;20057;-82
2021/07/22 06:20:12;;;;;;;19.40;11.38;;;18.00;99.90;;;;;;5133423;27;20125;-83
2021/07/22 06:22:38;;;;;;;17.63;10.40;;;18.10;99.90;;;;;;5134391;27;20103;-83
2021/07/22 06:25:05;;;;;;;16.63;10.02;;;18.20;99.90;;;;;;5134665;27;20023;-83
2021/07/22 06:27:31;;;;;;;14.00;9.43;;;18.30;99.90;;;;;;5135891;27;20024;-83
2021/07/22 06:30:00;;;;;;;12.55;9.35;;;18.30;98.40;;;;;;5134790;27;20455;-83
2021/07/22 06:32:26;;;;;;;14.40;9.85;;;18.40;99.40;;;;;;5134667;27;20034;-83
2021/07/22 06:34:52;;;;;;;15.05;9.40;;;18.50;99.40;;;;;;5134316;27;20027;-83
2021/07/22 06:37:17;;;;;;;13.75;9.32;;;18.70;99.80;;;;;;5135365;27;20020;-83
2021/07/22 06:39:43;;;;;;;15.40;10.30;;;18.70;99.30;;;;;;5135423;27;20480;-83
2021/07/22 06:42:09;;;;;;;13.50;9.98;;;18.80;97.60;;;;;;5135726;27;20023;-83
2021/07/22 06:44:34;;;;;;;11.75;8.27;;;18.70;97.00;;;;;;5133752;27;20031;-83
2021/07/22 06:47:00;;;;;;;14.55;8.90;;;18.90;96.20;;;;;;5135494;27;20578;-83
2021/07/22 06:49:26;;;;;;;15.15;10.38;;;19.00;95.30;;;;;;5133635;27;20022;-83
2021/07/22 06:51:52;;;;;;;11.10;9.02;;;19.10;93.10;;;;;;5133872;27;20016;-83
2021/07/22 06:54:18;;;;;;;16.08;10.10;;;19.20;93.70;;;;;;5134107;27;20023;-83
2021/07/22 06:56:44;;;;;;;15.25;10.20;;;19.30;92.60;;;;;;5134076;27;20053;-83
2021/07/22 06:59:10;;;;;;;14.02;9.63;;;19.40;94.20;;;;;;5133888;27;20070;-83
2021/07/22 07:01:36;;;;;;;13.55;10.35;;;19.50;92.30;;;;;;5116722;27;20030;-83
2021/07/22 07:04:04;;;;;;;15.55;10.07;;;19.50;93.20;;;;;;5116994;27;20031;-83
2021/07/22 07:06:32;;;;;;;15.00;9.77;;;19.70;95.30;;;;;;5135070;27;20519;-83
2021/07/22 07:08:58;;;;;;;12.73;9.32;;;19.70;91.00;;;;;;5116923;27;20054;-83
2021/07/22 07:11:24;;;;;;;14.98;10.15;;;19.80;91.30;;;;;;5116642;27;20107;-83
2021/07/22 07:13:49;;;;;;;15.82;9.73;;;19.70;89.70;;;;;;5133792;27;20025;-83
2021/07/22 07:16:15;;;;;;;14.25;9.52;;;19.80;91.60;;;;;;5133763;27;20015;-82
2021/07/22 07:18:41;;;;;;;14.77;9.35;;;19.90;92.30;;;;;;5134881;27;20074;-83
2021/07/22 07:21:06;;;;;;;18.67;9.20;;;20.00;87.90;;;;;;5133826;27;20015;-83
2021/07/22 07:23:33;;;;;;;10.85;8.82;;;20.10;87.40;;;;;;5133384;27;20110;-83
2021/07/22 07:26:00;;;;;;;13.63;9.07;;;20.10;90.30;;;;;;5134925;27;20022;-83
2021/07/22 07:28:26;;;;;;;11.27;8.98;;;20.20;90.40;;;;;;5134758;27;20066;-83
2021/07/22 07:30:53;;;;;;;12.00;7.80;;;20.20;88.60;;;;;;5134795;27;20038;-83
2021/07/22 07:33:19;;;;;;;14.93;8.05;;;20.20;87.20;;;;;;5132868;27;20021;-83
2021/07/22 07:35:44;;;;;;;11.75;7.95;;;20.20;87.40;;;;;;5133036;27;20110;-83
2021/07/22 07:38:10;;;;;;;10.55;7.32;;;20.20;87.50;;;;;;5130809;27;20057;-83
2021/07/22 07:40:36;;;;;;;11.32;7.53;;;20.30;86.40;;;;;;5133833;27;20027;-83
2021/07/22 07:43:03;;;;;;;10.65;7.97;;;20.50;87.10;;;;;;5133940;27;20549;-82
2021/07/22 07:45:29;;;;;;;10.48;7.47;;;20.50;86.00;;;;;;5132692;27;20011;-83
2021/07/22 07:47:55;;;;;;;11.13;7.32;;;20.70;85.20;;;;;;5132682;27;20544;-83
2021/07/22 07:50:21;;;;;;;12.18;7.63;;;20.80;84.90;;;;;;5133680;27;20027;-82
2021/07/22 07:52:47;;;;;;;11.23;7.60;;;20.90;84.80;;;;;;5132634;27;20446;-82
2021/07/22 07:55:14;;;;;;;13.93;8.40;;;21.00;84.90;;;;;;5130831;27;20024;-82
2021/07/22 07:57:40;;;;;;;11.57;8.45;;;21.00;82.30;;;;;;5132521;27;20487;-82
2021/07/22 08:00:07;;;;;;;11.32;8.65;;;21.20;84.20;;;;;;5132409;27;20020;-82
2021/07/22 08:02:32;;;;;;;10.52;7.75;;;21.20;83.60;;;;;;5130268;27;20018;-83
2021/07/22 08:04:59;;;;;;;12.65;7.30;;;21.20;80.00;;;;;;5132274;27;20023;-82
2021/07/22 08:07:25;;;;;;;11.68;6.85;;;21.30;77.40;;;;;;5131731;27;20034;-82
2021/07/22 08:09:51;;;;;;;7.97;6.68;;;21.40;77.80;;;;;;5132899;27;20013;-82
2021/07/22 08:12:17;;;;;;;8.68;6.45;;;21.40;75.90;;;;;;5132230;27;20020;-82
2021/07/22 08:14:43;;;;;;;9.02;6.22;;;21.50;76.90;;;;;;5132165;27;20378;-83
2021/07/22 08:17:16;;;;;;;9.98;6.57;;;21.40;73.40;;;;;;5132369;27;20022;-83
2021/07/22 08:19:42;;;;;;;7.30;5.68;;;21.40;71.00;;;;;;5132093;27;20488;-83
2021/07/22 08:22:11;;;;;;;8.20;6.05;;;21.50;74.60;;;;;;5130668;27;20019;-82
2021/07/22 08:24:37;;;;;;;8.98;6.20;;;21.70;73.40;;;;;;5132692;27;20027;-82
2021/07/22 08:27:04;;;;;;;8.25;5.32;;;21.70;74.00;;;;;;5133483;27;20468;-83
2021/07/22 08:29:29;;;;;;;6.55;4.78;;;21.80;68.00;;;;;;5133295;27;20015;-83
2021/07/22 08:31:55;;;;;;;8.90;4.85;;;21.80;65.20;;;;;;5132152;27;20065;-83
2021/07/22 08:34:21;;;;;;;8.05;5.20;;;21.60;64.50;;;;;;5133228;27;20401;-82
2021/07/22 08:36:47;;;;;;;8.73;5.35;;;21.70;65.80;;;;;;5132092;28;20457;-82
2021/07/22 08:39:13;;;;;;;7.82;5.13;;;21.80;65.00;;;;;;5132174;28;20092;-82
2021/07/22 08:41:46;;;;;;;11.60;5.60;;;21.70;64.90;;;;;;5133515;28;20528;-82
2021/07/22 08:44:13;;;;;;;8.80;5.05;;;21.70;66.80;;;;;;5132394;28;20046;-82
2021/07/22 08:46:44;;;;;;;7.97;5.22;;;21.80;67.50;;;;;;5132017;27;20023;-82
2021/07/22 08:49:10;;;;;;;9.07;4.85;;;21.70;66.70;;;;;;5136255;27;20465;-83
2021/07/22 08:51:36;;;;;;;7.38;4.70;;;21.70;68.50;;;;;;5133320;27;20361;-82
2021/07/22 08:54:02;;;;;;;6.85;4.65;;;21.90;68.80;;;;;;5135938;27;20104;-83
2021/07/22 08:56:28;;;;;;;7.63;5.78;;;22.10;67.20;;;;;;5137219;27;20102;-82
2021/07/22 08:58:58;;;;;;;6.68;4.28;;;21.90;63.90;;;;;;5137156;27;20035;-83
2021/07/22 09:01:28;;;;;;;8.38;5.30;;;22.10;64.20;;;;;;5118784;27;20114;-83
2021/07/22 09:03:57;;;;;;;6.80;4.40;;;21.90;64.30;;;;;;5135393;27;20027;-82
2021/07/22 09:06:23;;;;;;;7.72;4.57;;;21.90;66.00;;;;;;5137074;27;20084;-82
2021/07/22 09:08:48;;;;;;;6.32;5.38;;;22.00;65.10;;;;;;5136173;27;20054;-82
2021/07/22 09:11:14;;;;;;;6.45;4.93;;;22.10;64.80;;;;;;5114568;27;20023;-82
2021/07/22 09:13:40;;;;;;;6.55;4.85;;;22.00;64.60;;;;;;5135366;27;20030;-82
2021/07/22 09:16:08;;;;;;;7.05;4.82;;;22.10;66.20;;;;;;5136080;27;20117;-82
2021/07/22 09:18:35;;;;;;;6.93;4.82;;;22.00;66.00;;;;;;5137022;27;20447;-82
2021/07/22 09:21:23;;;;;;;9.38;5.30;;;22.00;64.40;;;;;;5135994;27;20019;-82
2021/07/22 09:24:09;;;;;;;7.03;5.35;;;22.10;64.60;;;;;;5137342;27;20019;-82
2021/07/22 09:26:40;;;;;;;8.75;4.75;;;22.00;64.20;;;;;;5135671;27;20012;-82
2021/07/22 09:29:10;;;;;;;6.45;4.13;;;21.90;64.60;;;;;;5137109;27;20023;-82
2021/07/22 09:31:36;;;;;;;6.78;4.55;;;21.70;64.20;;;;;;5137003;27;20022;-82
2021/07/22 09:34:03;;;;;;;9.43;4.90;;;21.50;63.20;;;;;;5136692;27;20035;-82
2021/07/22 09:36:32;;;;;;;5.75;4.80;;;21.60;63.70;;;;;;5136851;27;20369;-82
2021/07/22 09:39:24;;;;;;;5.45;4.78;;;21.40;65.00;;;;;;5135661;27;20181;-82
2021/07/22 09:42:06;;;;;;;7.22;5.30;;;21.40;65.20;;;;;;5135565;27;20031;-83
2021/07/22 09:44:39;;;;;;;5.57;4.95;;;21.20;64.90;;;;;;5135536;27;20023;-83
2021/07/22 09:47:07;;;;;;;8.35;5.32;;;21.20;64.50;;;;;;5135283;27;20031;-82
2021/07/22 09:49:34;;;;;;;6.93;5.18;;;21.40;65.30;;;;;;5136706;27;20019;-82
2021/07/22 09:52:03;;;;;;;6.70;4.32;;;21.20;65.00;;;;;;5134948;27;20082;-82
2021/07/22 09:54:36;;;;;;;8.05;4.25;;;21.40;65.70;;;;;;5135426;27;20157;-82
2021/07/22 09:57:03;;;;;;;7.43;4.50;;;21.50;64.00;;;;;;5135763;27;20038;-82
2021/07/22 09:59:30;;;;;;;7.28;4.70;;;21.70;63.30;;;;;;5135058;27;20031;-82
2021/07/22 10:02:03;;;;;;;8.50;4.60;;;21.60;63.20;;;;;;5134799;27;20057;-82
2021/07/22 10:04:30;;;;;;;5.43;4.32;;;21.50;61.50;;;;;;5132315;27;20637;-82
2021/07/22 10:07:00;;;;;;;6.90;4.30;;;21.60;62.30;;;;;;5134760;27;20007;-82
2021/07/22 10:09:31;;;;;;;7.13;4.70;;;21.70;64.40;;;;;;5114843;27;20031;-82
2021/07/22 10:11:57;;;;;;;6.03;4.40;;;21.80;62.60;;;;;;5129964;27;20023;-82
2021/07/22 10:14:24;;;;;;;6.95;4.80;;;21.70;62.00;;;;;;5134347;27;20026;-82
2021/07/22 10:16:50;;;;;;;7.80;4.22;;;21.70;61.80;;;;;;5135812;27;20015;-82
2021/07/22 10:19:17;;;;;;;4.75;3.38;;;21.80;64.40;;;;;;5134419;27;20031;-82
2021/07/22 10:21:43;;;;;;;7.03;4.68;;;21.80;59.60;;;;;;5134386;27;20043;-83
2021/07/22 10:24:09;;;;;;;6.57;4.75;;;21.80;60.10;;;;;;5131002;27;20051;-83
2021/07/22 10:26:40;;;;;;;7.22;4.78;;;21.80;59.60;;;;;;5129161;27;20030;-83
2021/07/22 10:29:06;;;;;;;7.00;4.78;;;21.90;60.70;;;;;;5131779;27;20023;-83
2021/07/22 10:31:40;;;;;;;6.13;4.63;;;22.00;61.30;;;;;;5130666;27;20563;-82
2021/07/22 10:34:15;;;;;;;7.05;4.60;;;22.00;59.70;;;;;;5131870;27;20377;-83
2021/07/22 10:36:43;;;;;;;8.90;5.20;;;22.20;58.70;;;;;;5130551;27;20081;-82
2021/07/22 10:39:09;;;;;;;6.25;4.70;;;22.40;59.00;;;;;;5130046;27;20029;-82
2021/07/22 10:41:40;;;;;;;5.63;5.05;;;22.70;61.30;;;;;;5130859;27;20110;-82
2021/07/22 10:44:31;;;;;;;6.57;5.28;;;22.80;59.30;;;;;;5131020;27;20023;-82
2021/07/22 10:46:57;;;;;;;6.63;4.88;;;22.80;58.70;;;;;;5130931;27;20034;-82
2021/07/22 10:49:40;;;;;;;5.40;4.63;;;22.80;58.20;;;;;;5131042;27;20419;-83
2021/07/22 10:52:09;;;;;;;8.18;5.60;;;23.10;57.00;;;;;;5129379;27;20114;-83
2021/07/22 10:54:43;;;;;;;7.15;4.78;;;22.80;58.10;;;;;;5133653;27;20023;-82
2021/07/22 10:57:38;;;;;;;7.72;4.07;;;22.70;59.50;;;;;;5132484;27;20023;-82
2021/07/22 11:00:09;;;;;;;8.50;5.47;;;22.80;58.10;;;;;;5131044;27;20066;-82
2021/07/22 11:02:40;;;;;;;4.78;4.35;;;22.70;57.50;;;;;;5130708;27;20765;-83
2021/07/22 11:05:06;;;;;;;6.40;5.25;;;22.80;58.40;;;;;;5114368;27;20350;-82
2021/07/22 11:07:31;;;;;;;8.65;4.35;;;23.10;58.50;;;;;;5131457;27;20022;-82
2021/07/22 11:10:00;;;;;;;13.13;5.85;;;23.30;58.10;;;;;;5131857;27;20030;-82
2021/07/22 11:12:44;;;;;;;7.35;5.10;;;23.30;57.40;;;;;;5133816;27;20041;-82
2021/07/22 11:15:36;;;;;;;6.30;4.82;;;23.00;57.70;;;;;;5135199;27;20023;-83
2021/07/22 11:18:42;;;;;;;6.78;5.50;;;22.90;57.10;;;;;;5119884;27;20093;-83
2021/07/22 11:21:12;;;;;;;7.38;4.93;;;22.90;56.50;;;;;;5133775;27;20139;-83
2021/07/22 11:23:41;;;;;;;7.53;4.32;;;23.00;56.40;;;;;;5135244;27;20023;-83
2021/07/22 11:26:07;;;;;;;9.10;5.40;;;23.10;57.50;;;;;;5134930;27;20121;-82
2021/07/22 11:28:34;;;;;;;7.88;4.78;;;23.20;58.80;;;;;;5133495;27;20043;-83
2021/07/22 11:31:03;;;;;;;7.78;5.28;;;23.20;58.50;;;;;;5134645;27;20123;-83
2021/07/22 11:33:30;;;;;;;9.82;6.10;;;22.80;57.50;;;;;;5133313;27;20027;-82
2021/07/22 11:36:01;;;;;;;6.88;5.22;;;22.40;58.10;;;;;;5133042;27;20019;-83
2021/07/22 11:38:27;;;;;;;8.35;6.95;;;22.60;57.90;;;;;;5134649;27;20072;-83
2021/07/22 11:40:54;;;;;;;9.70;6.05;;;22.70;59.70;;;;;;5133810;27;20033;-83
2021/07/22 11:43:41;;;;;;;8.02;5.95;;;22.50;60.20;;;;;;5133336;27;20027;-83
2021/07/22 11:46:12;;;;;;;9.13;7.00;;;22.30;62.00;;;;;;5133411;27;20023;-82
2021/07/22 11:48:39;;;;;;;6.95;6.05;;;22.10;63.60;;;;;;5134430;27;20019;-82
2021/07/22 11:51:14;;;;;;;9.38;6.43;;;21.80;64.80;;;;;;5133267;27;20121;-82
2021/07/22 11:53:42;;;;;;;11.15;6.75;;;21.80;66.20;;;;;;5133051;27;20023;-82
2021/07/22 11:56:13;;;;;;;10.10;6.55;;;21.70;66.70;;;;;;5133086;27;20057;-82
2021/07/22 11:58:44;;;;;;;10.15;7.78;;;21.60;67.10;;;;;;5132989;27;20034;-82
2021/07/22 12:01:09;;;;;;;9.55;7.22;;;21.60;68.10;;;;;;5134081;27;20049;-82
2021/07/22 12:03:35;;;;;;;16.50;7.28;;;21.60;69.00;;;;;;5132880;27;20026;-82
2021/07/22 12:06:01;;;;;;;9.65;6.55;;;21.40;68.40;;;;;;5132807;27;20019;-83
2021/07/22 12:08:26;;;;;;;11.93;7.32;;;21.40;69.80;;;;;;5133946;27;20027;-82
2021/07/22 12:10:59;;;;;;;10.10;7.45;;;21.60;70.90;;;;;;5132527;27;20504;-82
2021/07/22 12:13:24;;;;;;;8.50;6.80;;;21.60;68.80;;;;;;5134017;27;20023;-82
2021/07/22 12:15:50;;;;;;;12.20;6.10;;;21.60;67.90;;;;;;5131970;27;20118;-82
2021/07/22 12:18:19;;;;;;;8.77;6.78;;;21.70;70.10;;;;;;5133830;27;20023;-82
2021/07/22 12:20:45;;;;;;;12.23;7.25;;;21.40;68.50;;;;;;5132339;27;20063;-82
2021/07/22 12:23:30;;;;;;;9.05;6.90;;;21.40;70.80;;;;;;5132690;27;20065;-82
2021/07/22 12:25:56;;;;;;;9.50;7.10;;;21.40;73.00;;;;;;5131588;27;20149;-82
2021/07/22 12:28:22;;;;;;;8.43;5.80;;;21.30;71.10;;;;;;5131782;27;20110;-82
2021/07/22 12:30:48;;;;;;;7.97;6.97;;;21.40;70.10;;;;;;5132170;27;20050;-82
2021/07/22 12:33:25;;;;;;;8.63;7.20;;;21.30;70.70;;;;;;5132136;27;20035;-83
2021/07/22 12:35:52;;;;;;;15.38;7.03;;;21.40;71.60;;;;;;5132223;27;20015;-83
2021/07/22 12:38:17;;;;;;;12.60;7.07;;;21.30;71.60;;;;;;5129950;28;20011;-82
2021/07/22 12:40:48;;;;;;;9.13;7.07;;;21.40;72.50;;;;;;5131016;28;20373;-82